createdAt,value
2022-11-29T00:01:26.016Z,101432.41
2022-11-29T00:03:53.154Z,101435.75
2022-11-29T00:06:29.954Z,101433.25
2022-11-29T00:09:01.558Z,101441.50
2022-11-29T00:11:52.212Z,101437.78
2022-11-29T00:14:19.914Z,101436.13
2022-11-29T00:16:51.773Z,101441.13
2022-11-29T00:19:18.306Z,101438.63
2022-11-29T00:21:44.938Z,101445.53
2022-11-29T00:24:11.433Z,101441.81
2022-11-29T00:26:38.122Z,101445.34
2022-11-29T00:29:05.139Z,101448.72
2022-11-29T00:31:32.684Z,101454.09
2022-11-29T00:34:01.314Z,101448.72
2022-11-29T00:36:28.133Z,101445.34
2022-11-29T00:38:54.585Z,101447.38
2022-11-29T00:41:21.166Z,101454.41
2022-11-29T00:43:47.813Z,101454.22
2022-11-29T00:46:14.250Z,101455.06
2022-11-29T00:48:40.745Z,101449.03
2022-11-29T00:51:07.685Z,101451.72
2022-11-29T00:53:35.244Z,101453.56
2022-11-29T00:56:02.674Z,101456.09
2022-11-29T00:58:29.896Z,101463.13
2022-11-29T01:00:56.617Z,101471.03
2022-11-29T01:03:23.661Z,101467.50
2022-11-29T01:05:50.915Z,101466.66
2022-11-29T01:08:17.885Z,101471.03
2022-11-29T01:10:44.655Z,101470.19
2022-11-29T01:13:11.808Z,101476.41
2022-11-29T01:15:38.188Z,101474.56
2022-11-29T01:18:04.784Z,101472.53
2022-11-29T01:20:31.341Z,101466.31
2022-11-29T01:22:58.139Z,101475.22
2022-11-29T01:25:24.550Z,101474.38
2022-11-29T01:27:50.916Z,101471.53
2022-11-29T01:30:17.354Z,101465.28
2022-11-29T01:32:43.697Z,101470.03
2022-11-29T01:35:10.092Z,101471.69
2022-11-29T01:37:36.484Z,101467.97
2022-11-29T01:40:03.913Z,101483.13
2022-11-29T01:42:30.258Z,101478.72
2022-11-29T01:45:03.997Z,101477.06
2022-11-29T01:47:31.227Z,101478.91
2022-11-29T01:49:58.657Z,101484.47
2022-11-29T01:52:32.233Z,101487.47
2022-11-29T01:55:02.962Z,101495.38
2022-11-29T01:57:30.952Z,101493.50
2022-11-29T02:00:04.126Z,101493.50
2022-11-29T02:02:44.781Z,101494.38
2022-11-29T02:05:14.806Z,101496.19
2022-11-29T02:07:45.671Z,101490.16
2022-11-29T02:10:13.307Z,101497.53
2022-11-29T02:13:11.007Z,101496.91
2022-11-29T02:15:50.973Z,101497.53
2022-11-29T02:18:54.123Z,101497.72
2022-11-29T02:21:31.417Z,101494.84
2022-11-29T02:24:35.291Z,101498.22
2022-11-29T02:27:17.471Z,101494.84
2022-11-29T02:29:46.483Z,101498.56
2022-11-29T02:32:28.102Z,101506.63
2022-11-29T02:35:13.286Z,101499.56
2022-11-29T02:37:50.701Z,101504.94
2022-11-29T02:40:24.322Z,101507.97
2022-11-29T02:43:19.440Z,101514.34
2022-11-29T02:46:12.241Z,101515.69
2022-11-29T02:49:26.171Z,101515.00
2022-11-29T02:52:00.450Z,101531.13
2022-11-29T02:54:50.095Z,101526.78
2022-11-29T02:57:37.267Z,101531.13
2022-11-29T03:00:14.693Z,101534.66
2022-11-29T03:03:03.785Z,101539.19
2022-11-29T03:06:07.942Z,101542.06
2022-11-29T03:08:46.085Z,101541.38
2022-11-29T03:11:49.789Z,101541.53
2022-11-29T03:14:25.879Z,101546.25
2022-11-29T03:17:11.295Z,101547.25
2022-11-29T03:20:15.377Z,101554.63
2022-11-29T03:23:09.686Z,101552.97
2022-11-29T03:25:42.168Z,101551.25
2022-11-29T03:28:18.727Z,101557.66
2022-11-29T03:30:56.611Z,101557.66
2022-11-29T03:33:52.411Z,101567.72
2022-11-29T03:36:39.845Z,101561.66
2022-11-29T03:39:11.064Z,101565.50
2022-11-29T03:41:48.788Z,101564.84
2022-11-29T03:44:26.728Z,101570.41
2022-11-29T03:47:14.416Z,101565.34
2022-11-29T03:49:48.252Z,101568.19
2022-11-29T03:52:24.107Z,101573.41
2022-11-29T03:55:17.411Z,101575.09
2022-11-29T03:58:02.018Z,101574.91
2022-11-29T04:00:44.690Z,101575.91
2022-11-29T04:03:48.261Z,101577.75
2022-11-29T04:06:24.082Z,101585.00
2022-11-29T04:09:26.704Z,101581.47
2022-11-29T04:12:14.245Z,101584.28
2022-11-29T04:14:58.767Z,101592.53
2022-11-29T04:17:43.886Z,101589.00
2022-11-29T04:20:27.897Z,101593.53
2022-11-29T04:23:24.687Z,101593.69
2022-11-29T04:26:25.018Z,101593.69
2022-11-29T04:29:15.422Z,101593.84
2022-11-29T04:31:57.639Z,101597.56
2022-11-29T04:34:43.198Z,101603.94
2022-11-29T04:37:29.764Z,101610.47
2022-11-29T04:40:06.097Z,101609.75
2022-11-29T04:42:54.358Z,101613.47
2022-11-29T04:45:36.337Z,101614.28
2022-11-29T04:48:27.428Z,101618.00
2022-11-29T04:51:21.361Z,101627.06
2022-11-29T04:54:15.359Z,101636.97
2022-11-29T04:56:49.869Z,101636.44
2022-11-29T04:59:34.304Z,101645.50
2022-11-29T05:02:07.949Z,101647.31
2022-11-29T05:04:50.608Z,101650.16
2022-11-29T05:07:29.055Z,101651.19
2022-11-29T05:10:23.695Z,101647.50
2022-11-29T05:13:12.892Z,101655.72
2022-11-29T05:16:00.097Z,101654.69
2022-11-29T05:18:53.894Z,101654.69
2022-11-29T05:21:33.814Z,101646.81
2022-11-29T05:24:34.052Z,101649.81
2022-11-29T05:27:42.238Z,101658.72
2022-11-29T05:30:18.273Z,101660.56
2022-11-29T05:32:53.264Z,101657.88
2022-11-29T05:35:53.830Z,101662.41
2022-11-29T05:38:30.404Z,101664.91
2022-11-29T05:41:15.248Z,101669.28
2022-11-29T05:44:00.362Z,101675.47
2022-11-29T05:46:42.874Z,101688.88
2022-11-29T05:49:23.939Z,101678.63
2022-11-29T05:52:24.238Z,101683.47
2022-11-29T05:55:05.060Z,101694.22
2022-11-29T05:57:42.503Z,101691.72
2022-11-29T06:00:14.500Z,101697.91
2022-11-29T06:02:53.905Z,101700.75
2022-11-29T06:05:42.216Z,101704.75
2022-11-29T06:08:17.844Z,101709.97
2022-11-29T06:11:01.423Z,101713.47
2022-11-29T06:13:50.886Z,101719.84
2022-11-29T06:16:35.392Z,101718.84
2022-11-29T06:19:30.107Z,101717.19
2022-11-29T06:22:31.985Z,101720.16
2022-11-29T06:25:17.195Z,101721.19
2022-11-29T06:27:59.048Z,101728.38
2022-11-29T06:30:51.678Z,101729.22
2022-11-29T06:33:24.007Z,101725.41
2022-11-29T06:36:01.008Z,101727.53
2022-11-29T06:38:29.923Z,101727.00
2022-11-29T06:41:01.779Z,101731.81
2022-11-29T06:43:29.543Z,101732.81
2022-11-29T06:46:31.647Z,101745.84
2022-11-29T06:49:33.315Z,101745.84
2022-11-29T06:52:27.060Z,101753.75
2022-11-29T06:55:03.698Z,101758.75
2022-11-29T06:57:57.579Z,101763.13
2022-11-29T07:00:28.151Z,101763.13
2022-11-29T07:03:19.278Z,101771.16
2022-11-29T07:05:46.730Z,101772.59
2022-11-29T07:08:21.344Z,101778.31
2022-11-29T07:10:50.965Z,101789.03
2022-11-29T07:13:18.789Z,101791.84
2022-11-29T07:15:56.362Z,101788.63
2022-11-29T07:18:38.955Z,101798.69
2022-11-29T07:21:16.212Z,101798.84
2022-11-29T07:24:15.684Z,101800.00
2022-11-29T07:26:55.132Z,101805.34
2022-11-29T07:29:33.441Z,101804.53
2022-11-29T07:32:27.774Z,101810.88
2022-11-29T07:35:01.757Z,101815.53
2022-11-29T07:37:54.264Z,101812.03
2022-11-29T07:40:59.447Z,101817.22
2022-11-29T07:43:34.063Z,101821.75
2022-11-29T07:46:00.764Z,101821.75
2022-11-29T07:48:27.196Z,101828.09
2022-11-29T07:50:55.911Z,101825.44
2022-11-29T07:53:23.496Z,101826.44
2022-11-29T07:55:50.370Z,101826.91
2022-11-29T07:58:17.881Z,101825.50
2022-11-29T08:00:44.704Z,101832.69
2022-11-29T08:03:11.522Z,101832.69
2022-11-29T08:05:38.470Z,101831.00
2022-11-29T08:08:05.615Z,101831.84
2022-11-29T08:10:32.060Z,101827.66
2022-11-29T08:12:58.520Z,101834.16
2022-11-29T08:15:25.780Z,101846.00
2022-11-29T08:17:53.045Z,101846.34
2022-11-29T08:20:19.638Z,101851.00
2022-11-29T08:22:53.641Z,101845.63
2022-11-29T08:25:19.991Z,101849.00
2022-11-29T08:27:46.372Z,101853.38
2022-11-29T08:30:13.102Z,101857.06
2022-11-29T08:32:45.849Z,101865.78
2022-11-29T08:35:15.792Z,101863.09
2022-11-29T08:37:42.143Z,101864.47
2022-11-29T08:40:08.945Z,101861.50
2022-11-29T08:42:35.312Z,101855.97
2022-11-29T08:45:01.738Z,101865.84
2022-11-29T08:47:37.135Z,101864.47
2022-11-29T08:50:10.080Z,101861.25
2022-11-29T08:52:57.799Z,101871.03
2022-11-29T08:55:27.042Z,101878.78
2022-11-29T08:57:59.741Z,101880.19
2022-11-29T09:00:26.122Z,101883.69
2022-11-29T09:02:52.565Z,101883.53
2022-11-29T09:05:19.193Z,101884.00
2022-11-29T09:07:46.903Z,101889.97
2022-11-29T09:10:13.335Z,101899.13
2022-11-29T09:12:40.213Z,101902.94
2022-11-29T09:15:09.596Z,101904.66
2022-11-29T09:17:36.174Z,101904.25
2022-11-29T09:20:03.873Z,101906.06
2022-11-29T09:22:30.236Z,101904.69
2022-11-29T09:24:57.219Z,101902.00
2022-11-29T09:27:23.593Z,101905.41
2022-11-29T09:29:50.013Z,101902.84
2022-11-29T09:32:16.453Z,101908.06
2022-11-29T09:34:43.172Z,101902.72
2022-11-29T09:37:09.714Z,101907.06
2022-11-29T09:39:36.180Z,101916.97
2022-11-29T09:42:32.866Z,101920.47
2022-11-29T09:45:07.048Z,101919.19
2022-11-29T09:47:56.410Z,101922.88
2022-11-29T09:50:34.781Z,101924.69
2022-11-29T09:53:37.804Z,101924.53
2022-11-29T09:56:39.130Z,101922.56
2022-11-29T09:59:29.053Z,101929.75
2022-11-29T10:02:04.492Z,101937.78
2022-11-29T10:04:40.874Z,101934.97
2022-11-29T10:07:22.112Z,101932.97
2022-11-29T10:10:03.520Z,101935.53
2022-11-29T10:12:44.199Z,101935.38
2022-11-29T10:15:21.645Z,101941.28
2022-11-29T10:18:02.810Z,101936.59
2022-11-29T10:20:37.850Z,101937.13
2022-11-29T10:23:26.581Z,101938.25
2022-11-29T10:25:55.680Z,101938.63
2022-11-29T10:28:25.738Z,101944.41
2022-11-29T10:30:54.439Z,101951.16
2022-11-29T10:33:29.735Z,101946.34
2022-11-29T10:35:59.075Z,101940.81
2022-11-29T10:38:33.027Z,101943.19
2022-11-29T10:41:13.713Z,101941.75
2022-11-29T10:43:40.380Z,101943.84
2022-11-29T10:46:15.502Z,101944.66
2022-11-29T10:48:42.288Z,101943.66
2022-11-29T10:51:16.960Z,101946.44
2022-11-29T10:53:45.052Z,101944.03
2022-11-29T10:56:29.451Z,101937.03
2022-11-29T10:59:05.333Z,101934.75
2022-11-29T11:01:36.941Z,101940.66
2022-11-29T11:04:07.265Z,101932.59
2022-11-29T11:06:59.878Z,101940.31
2022-11-29T11:09:35.350Z,101941.34
2022-11-29T11:12:06.041Z,101941.50
2022-11-29T11:14:37.364Z,101938.81
2022-11-29T11:17:26.256Z,101938.66
2022-11-29T11:20:00.801Z,101940.19
2022-11-29T11:22:29.168Z,101932.97
2022-11-29T11:24:59.493Z,101939.00
2022-11-29T11:27:35.424Z,101943.53
2022-11-29T11:30:04.416Z,101945.69
2022-11-29T11:32:31.380Z,101942.47
2022-11-29T11:35:00.578Z,101936.66
2022-11-29T11:37:31.262Z,101941.56
2022-11-29T11:40:00.902Z,101941.22
2022-11-29T11:42:38.543Z,101943.63
2022-11-29T11:45:10.865Z,101939.78
2022-11-29T11:47:43.905Z,101936.81
2022-11-29T11:50:25.903Z,101936.47
2022-11-29T11:52:58.618Z,101944.38
2022-11-29T11:55:33.397Z,101942.06
2022-11-29T11:58:06.193Z,101951.03
2022-11-29T12:01:05.514Z,101957.84
2022-11-29T12:03:56.774Z,101954.41
2022-11-29T12:06:43.579Z,101956.47
2022-11-29T12:09:28.532Z,101963.06
2022-11-29T12:12:20.076Z,101970.63
2022-11-29T12:15:07.043Z,101974.03
2022-11-29T12:18:00.937Z,101974.53
2022-11-29T12:20:46.515Z,101974.91
2022-11-29T12:23:12.875Z,101975.44
2022-11-29T12:25:57.666Z,101981.31
2022-11-29T12:28:33.754Z,101977.66
2022-11-29T12:31:37.488Z,101983.69
2022-11-29T12:34:22.626Z,101995.81
2022-11-29T12:37:02.289Z,101990.78
2022-11-29T12:39:50.463Z,101995.19
2022-11-29T12:42:36.046Z,101991.78
2022-11-29T12:45:36.412Z,101999.88
2022-11-29T12:48:08.933Z,101995.19
2022-11-29T12:50:45.138Z,101996.03
2022-11-29T12:53:29.310Z,102004.75
2022-11-29T12:56:28.119Z,102008.28
2022-11-29T12:59:32.786Z,102013.53
2022-11-29T13:02:33.472Z,102015.03
2022-11-29T13:05:15.662Z,102015.19
2022-11-29T13:07:50.313Z,102017.72
2022-11-29T13:10:19.892Z,102015.72
2022-11-29T13:12:51.987Z,102013.88
2022-11-29T13:15:22.135Z,102011.19
2022-11-29T13:18:05.622Z,102015.41
2022-11-29T13:21:10.553Z,102011.72
2022-11-29T13:24:10.550Z,102017.09
2022-11-29T13:26:39.951Z,102018.94
2022-11-29T13:29:12.521Z,102010.03
2022-11-29T13:31:39.675Z,102012.72
2022-11-29T13:34:17.418Z,102013.03
2022-11-29T13:37:15.294Z,102015.72
2022-11-29T13:39:51.271Z,102009.50
2022-11-29T13:42:36.416Z,102019.25
2022-11-29T13:45:07.470Z,102015.91
2022-11-29T13:47:47.677Z,102018.91
2022-11-29T13:50:38.956Z,102016.75
2022-11-29T13:53:18.041Z,102010.97
2022-11-29T13:55:48.029Z,102011.66
2022-11-29T13:58:17.819Z,102010.66
2022-11-29T14:00:44.708Z,102016.22
2022-11-29T14:03:23.421Z,102014.19
2022-11-29T14:05:53.559Z,102013.34
2022-11-29T14:08:24.377Z,102013.34
2022-11-29T14:10:54.625Z,102010.97
2022-11-29T14:13:28.584Z,102010.31
2022-11-29T14:15:58.646Z,102015.69
2022-11-29T14:18:37.267Z,102017.34
2022-11-29T14:21:04.651Z,102023.75
2022-11-29T14:23:40.570Z,102023.75
2022-11-29T14:26:06.929Z,102027.44
2022-11-29T14:28:39.933Z,102030.81
2022-11-29T14:31:10.478Z,102026.25
2022-11-29T14:34:03.881Z,102026.44
2022-11-29T14:36:54.264Z,102030.97
2022-11-29T14:39:31.519Z,102038.19
2022-11-29T14:42:17.050Z,102034.50
2022-11-29T14:44:48.308Z,102035.66
2022-11-29T14:47:34.670Z,102037.50
2022-11-29T14:50:06.466Z,102025.75
2022-11-29T14:52:39.618Z,102033.13
2022-11-29T14:55:30.508Z,102035.13
2022-11-29T14:58:05.551Z,102039.66
2022-11-29T15:00:47.305Z,102038.28
2022-11-29T15:03:16.889Z,102042.16
2022-11-29T15:05:46.907Z,102034.41
2022-11-29T15:08:18.986Z,102037.09
2022-11-29T15:10:51.603Z,102045.47
2022-11-29T15:13:26.966Z,102046.47
2022-11-29T15:16:12.819Z,102045.78
2022-11-29T15:19:15.744Z,102052.31
2022-11-29T15:21:54.642Z,102054.66
2022-11-29T15:24:28.042Z,102061.34
2022-11-29T15:27:00.348Z,102058.13
2022-11-29T15:29:28.516Z,102058.41
2022-11-29T15:31:57.896Z,102057.03
2022-11-29T15:34:40.718Z,102065.28
2022-11-29T15:37:20.618Z,102059.34
2022-11-29T15:39:46.994Z,102069.72
2022-11-29T15:42:15.678Z,102069.88
2022-11-29T15:44:46.669Z,102062.13
2022-11-29T15:47:24.711Z,102063.13
2022-11-29T15:49:53.001Z,102064.44
2022-11-29T15:52:36.289Z,102076.19
2022-11-29T15:55:11.564Z,102073.63
2022-11-29T15:57:42.757Z,102073.09
2022-11-29T16:00:17.334Z,102069.72
2022-11-29T16:02:52.344Z,102072.56
2022-11-29T16:05:30.224Z,102071.69
2022-11-29T16:08:04.595Z,102070.03
2022-11-29T16:10:50.325Z,102066.50
2022-11-29T16:13:25.498Z,102076.41
2022-11-29T16:16:04.708Z,102080.22
2022-11-29T16:18:31.324Z,102077.41
2022-11-29T16:21:04.366Z,102080.75
2022-11-29T16:23:42.168Z,102080.63
2022-11-29T16:26:16.639Z,102086.69
2022-11-29T16:28:49.124Z,102084.84
2022-11-29T16:31:24.761Z,102087.69
2022-11-29T16:33:52.591Z,102084.00
2022-11-29T16:36:23.701Z,102082.16
2022-11-29T16:38:54.171Z,102081.13
2022-11-29T16:41:37.838Z,102077.31
2022-11-29T16:44:05.999Z,102087.06
2022-11-29T16:46:41.464Z,102087.75
2022-11-29T16:49:35.373Z,102086.91
2022-11-29T16:52:03.916Z,102086.09
2022-11-29T16:54:35.246Z,102092.28
2022-11-29T16:57:05.153Z,102093.13
2022-11-29T16:59:32.428Z,102092.97
2022-11-29T17:01:59.401Z,102097.19
2022-11-29T17:04:26.434Z,102093.50
2022-11-29T17:06:54.788Z,102102.28
2022-11-29T17:09:27.357Z,102098.56
2022-11-29T17:11:55.070Z,102100.44
2022-11-29T17:14:21.618Z,102099.59
2022-11-29T17:16:49.622Z,102099.25
2022-11-29T17:19:16.613Z,102096.56
2022-11-29T17:21:43.439Z,102096.56
2022-11-29T17:24:13.316Z,102102.81
2022-11-29T17:26:40.947Z,102107.31
2022-11-29T17:29:07.766Z,102101.94
2022-11-29T17:31:34.194Z,102116.25
2022-11-29T17:34:00.771Z,102122.47
2022-11-29T17:36:27.281Z,102120.75
2022-11-29T17:38:56.119Z,102120.75
2022-11-29T17:41:24.417Z,102119.91
2022-11-29T17:43:52.252Z,102119.06
2022-11-29T17:46:27.615Z,102117.94
2022-11-29T17:48:54.458Z,102124.97
2022-11-29T17:51:50.703Z,102125.81
2022-11-29T17:54:10.710Z,102126.81
2022-11-29T17:56:37.133Z,102124.13
2022-11-29T17:59:04.717Z,102130.34
2022-11-29T18:01:33.570Z,102127.66
2022-11-29T18:04:02.177Z,102127.84
2022-11-29T18:06:40.092Z,102133.22
2022-11-29T18:09:09.143Z,102131.50
2022-11-29T18:11:46.427Z,102131.50
2022-11-29T18:14:16.570Z,102131.66
2022-11-29T18:16:44.887Z,102132.66
2022-11-29T18:19:13.811Z,102137.19
2022-11-29T18:21:40.249Z,102140.84
2022-11-29T18:24:07.793Z,102140.72
2022-11-29T18:26:36.218Z,102139.72
2022-11-29T18:29:03.818Z,102145.25
2022-11-29T18:31:33.108Z,102145.09
2022-11-29T18:34:02.060Z,102146.63
2022-11-29T18:36:31.010Z,102151.84
2022-11-29T18:39:03.658Z,102154.22
2022-11-29T18:41:31.150Z,102156.91
2022-11-29T18:44:00.634Z,102161.28
2022-11-29T18:46:32.185Z,102157.75
2022-11-29T18:49:00.546Z,102172.56
2022-11-29T18:51:28.127Z,102166.19
2022-11-29T18:53:54.763Z,102169.59
2022-11-29T18:56:22.883Z,102177.66
2022-11-29T18:58:58.513Z,102182.03
2022-11-29T19:01:27.695Z,102182.84
2022-11-29T19:03:56.592Z,102184.72
2022-11-29T19:06:25.183Z,102187.41
2022-11-29T19:08:52.823Z,102193.59
2022-11-29T19:11:22.503Z,102190.75
2022-11-29T19:13:53.587Z,102195.16
2022-11-29T19:16:20.151Z,102191.94
2022-11-29T19:18:50.774Z,102197.97
2022-11-29T19:21:18.343Z,102196.28
2022-11-29T19:23:45.264Z,102198.97
2022-11-29T19:26:13.655Z,102201.66
2022-11-29T19:28:44.935Z,102198.31
2022-11-29T19:31:13.823Z,102191.38
2022-11-29T19:33:41.983Z,102195.06
2022-11-29T19:36:12.385Z,102199.44
2022-11-29T19:38:39.762Z,102203.97
2022-11-29T19:41:11.472Z,102204.66
2022-11-29T19:43:38.648Z,102203.81
2022-11-29T19:46:13.743Z,102203.81
2022-11-29T19:48:40.446Z,102204.66
2022-11-29T19:51:07.931Z,102202.81
2022-11-29T19:53:35.306Z,102209.72
2022-11-29T19:56:06.199Z,102203.53
2022-11-29T19:58:32.808Z,102205.91
2022-11-29T20:01:11.073Z,102204.91
2022-11-29T20:03:38.430Z,102205.75
2022-11-29T20:06:05.096Z,102211.81
2022-11-29T20:08:32.343Z,102207.44
2022-11-29T20:11:09.896Z,102214.50
2022-11-29T20:13:38.082Z,102211.81
2022-11-29T20:16:08.783Z,102219.72
2022-11-29T20:18:36.969Z,102217.88
2022-11-29T20:21:11.763Z,102220.41
2022-11-29T20:23:39.796Z,102224.81
2022-11-29T20:26:08.099Z,102223.78
2022-11-29T20:28:35.383Z,102221.09
2022-11-29T20:31:17.458Z,102216.41
2022-11-29T20:33:45.760Z,102222.66
2022-11-29T20:36:20.924Z,102220.94
2022-11-29T20:38:58.017Z,102223.78
2022-11-29T20:41:45.417Z,102235.38
2022-11-29T20:44:19.431Z,102231.56
2022-11-29T20:46:45.982Z,102238.78
2022-11-29T20:49:17.184Z,102236.09
2022-11-29T20:51:53.768Z,102235.94
2022-11-29T20:54:20.237Z,102230.56
2022-11-29T20:56:46.652Z,102238.63
2022-11-29T20:59:13.171Z,102239.47
2022-11-29T21:01:39.582Z,102243.16
2022-11-29T21:04:06.108Z,102238.78
2022-11-29T21:06:37.101Z,102249.38
2022-11-29T21:09:03.742Z,102247.53
2022-11-29T21:11:30.312Z,102242.16
2022-11-29T21:13:56.941Z,102248.38
2022-11-29T21:16:31.367Z,102245.84
2022-11-29T21:19:01.616Z,102247.53
2022-11-29T21:21:35.014Z,102251.88
2022-11-29T21:24:39.370Z,102251.75
2022-11-29T21:27:06.790Z,102253.75
2022-11-29T21:29:33.462Z,102253.75
2022-11-29T21:32:01.940Z,102252.72
2022-11-29T21:34:28.548Z,102249.06
2022-11-29T21:36:58.260Z,102253.44
2022-11-29T21:39:33.268Z,102239.84
2022-11-29T21:41:59.875Z,102240.16
2022-11-29T21:44:26.331Z,102248.38
2022-11-29T21:46:52.792Z,102250.03
2022-11-29T21:49:19.271Z,102258.81
2022-11-29T21:51:45.658Z,102250.75
2022-11-29T21:54:12.020Z,102254.28
2022-11-29T21:56:38.365Z,102252.72
2022-11-29T21:59:05.685Z,102256.44
2022-11-29T22:01:33.668Z,102252.91
2022-11-29T22:04:00.313Z,102251.22
2022-11-29T22:06:28.177Z,102254.75
2022-11-29T22:08:54.747Z,102252.91
2022-11-29T22:11:33.919Z,102258.28
2022-11-29T22:14:15.835Z,102264.50
2022-11-29T22:16:55.576Z,102251.06
2022-11-29T22:19:24.369Z,102256.44
2022-11-29T22:21:57.461Z,102259.81
2022-11-29T22:24:26.480Z,102263.19
2022-11-29T22:26:53.951Z,102255.13
2022-11-29T22:29:21.017Z,102260.50
2022-11-29T22:31:50.879Z,102257.97
2022-11-29T22:34:17.339Z,102255.41
2022-11-29T22:36:43.697Z,102265.19
2022-11-29T22:39:10.406Z,102260.66
2022-11-29T22:41:38.231Z,102260.50
2022-11-29T22:44:04.810Z,102264.88
2022-11-29T22:46:32.039Z,102270.56
2022-11-29T22:49:00.313Z,102271.91
2022-11-29T22:51:30.530Z,102269.56
2022-11-29T22:53:58.948Z,102271.16
2022-11-29T22:56:28.163Z,102272.75
2022-11-29T22:58:55.326Z,102279.25
2022-11-29T23:01:24.043Z,102275.25
2022-11-29T23:03:53.771Z,102279.34
2022-11-29T23:06:31.674Z,102290.41
2022-11-29T23:09:03.836Z,102287.84
2022-11-29T23:11:30.613Z,102295.22
2022-11-29T23:13:57.288Z,102291.59
2022-11-29T23:16:26.623Z,102294.59
2022-11-29T23:19:10.067Z,102286.53
2022-11-29T23:21:38.540Z,102298.28
2022-11-29T23:24:05.084Z,102294.88
2022-11-29T23:26:38.748Z,102295.16
2022-11-29T23:29:07.372Z,102304.22
2022-11-29T23:31:33.921Z,102298.16
2022-11-29T23:34:01.709Z,102289.41
2022-11-29T23:36:28.140Z,102299.84
2022-11-29T23:38:54.540Z,102289.69
2022-11-29T23:41:21.223Z,102290.28
2022-11-29T23:43:47.596Z,102290.97
2022-11-29T23:46:17.396Z,102290.69
2022-11-29T23:48:44.331Z,102296.78
2022-11-29T23:51:11.760Z,102298.16
2022-11-29T23:53:38.432Z,102306.91
2022-11-29T23:56:11.539Z,102297.72
2022-11-29T23:58:38.354Z,102301.25
